ESNS

Skellefteå Airport

Skellefteå, Sweden
TAF ESNS 171430Z 1715/1722 18012KT 9999 SCT035 TEMPO 1718/1722 SHRA BKN030CB
Issued Valid From Valid To
Aug-17 @ 14:30 UTC
(28 minutes ago)
Aug-17 @ 15:00 UTC
(in 2 minutes)
Aug-17 @ 22:00 UTC
(in 7 hours)
Aug-17 @ 15:00 to Aug-17 @ 22:00
TAF ESNS 171430Z 1715/1722 18012KT 9999 SCT035
Wind Visibility Clouds
180° at 12 knots 10,000+ meters
  • Scattered at 3,500' AGL
Temporary Aug-17 @ 18:00 to Aug-17 @ 22:00
TEMPO 1718/1722 SHRA BKN030CB
Clouds Conditions
  • Broken at 3,000' AGL
  • Rain
TAF ESNS 171430Z 1715/1722 18012KT 9999 SCT035 TEMPO 1718/1722 SHRA BKN030CB
Issued Aug-17 @ 14:30 UTC
(28 minutes ago)
Valid From Aug-17 @ 15:00 UTC
(in 2 minutes)
Valid To Aug-17 @ 22:00 UTC
(in 7 hours)
Aug-17 @ 15:00 - Aug-17 @ 22:00
Wind Visibility
180° at 12 knots 10,000+ meters
Clouds
  • Scattered at 3,500' AGL
Temporary Aug-17 @ 18:00 - Aug-17 @ 22:00
Clouds
  • Broken at 3,000' AGL
Conditions
  • Rain